createdAt,value
2022-09-17T00:01:33.409Z,55.10
2022-09-17T00:04:04.631Z,55.20
2022-09-17T00:06:35.706Z,55.43
2022-09-17T00:09:06.133Z,55.17
2022-09-17T00:11:37.716Z,55.15
2022-09-17T00:14:07.209Z,55.52
2022-09-17T00:16:41.380Z,55.44
2022-09-17T00:19:14.410Z,55.54
2022-09-17T00:21:42.706Z,55.61
2022-09-17T00:24:12.427Z,55.61
2022-09-17T00:26:40.935Z,55.37
2022-09-17T00:29:09.787Z,55.10
2022-09-17T00:31:38.311Z,55.47
2022-09-17T00:34:06.305Z,55.52
2022-09-17T00:36:38.965Z,55.50
2022-09-17T00:39:09.501Z,55.57
2022-09-17T00:41:39.020Z,55.48
2022-09-17T00:44:44.401Z,55.73
2022-09-17T00:47:32.039Z,55.53
2022-09-17T00:50:14.169Z,55.69
2022-09-17T00:52:46.733Z,55.49
2022-09-17T00:55:54.920Z,55.52
2022-09-17T00:58:23.709Z,55.05
2022-09-17T01:00:51.400Z,55.34
2022-09-17T01:03:19.959Z,55.35
2022-09-17T01:05:53.054Z,55.12
2022-09-17T01:08:35.925Z,55.20
2022-09-17T01:11:06.570Z,55.20
2022-09-17T01:14:02.184Z,55.00
2022-09-17T01:17:17.404Z,54.99
2022-09-17T01:20:12.469Z,55.13
2022-09-17T01:23:17.784Z,54.98
2022-09-17T01:26:03.082Z,54.85
2022-09-17T01:28:47.732Z,54.71
2022-09-17T01:31:18.307Z,54.49
2022-09-17T01:34:02.030Z,54.97
2022-09-17T01:36:41.664Z,54.70
2022-09-17T01:39:30.335Z,54.74
2022-09-17T01:42:16.810Z,54.81
2022-09-17T01:44:53.591Z,54.68
2022-09-17T01:47:30.190Z,54.67
2022-09-17T01:50:06.320Z,54.78
2022-09-17T01:52:36.880Z,54.65
2022-09-17T01:55:13.004Z,54.79
2022-09-17T01:58:23.295Z,54.69
2022-09-17T02:00:57.658Z,54.84
2022-09-17T02:03:40.784Z,54.61
2022-09-17T02:06:17.017Z,54.74
2022-09-17T02:09:19.182Z,54.42
2022-09-17T02:11:53.262Z,54.83
2022-09-17T02:14:28.093Z,54.67
2022-09-17T02:17:07.008Z,54.68
2022-09-17T02:19:38.704Z,54.72
2022-09-17T02:22:16.475Z,54.63
2022-09-17T02:25:06.901Z,54.33
2022-09-17T02:27:43.031Z,54.61
2022-09-17T02:30:11.128Z,54.77
2022-09-17T02:32:38.903Z,54.23
2022-09-17T02:35:07.644Z,54.59
2022-09-17T02:37:35.370Z,54.58
2022-09-17T02:40:04.141Z,54.33
2022-09-17T02:43:19.237Z,54.37
2022-09-17T02:46:10.196Z,54.28
2022-09-17T02:49:04.010Z,54.27
2022-09-17T02:51:32.124Z,54.50
2022-09-17T02:54:16.843Z,54.06
2022-09-17T02:56:46.354Z,54.37
2022-09-17T02:59:29.966Z,54.26
2022-09-17T03:02:09.183Z,53.22
2022-09-17T03:04:38.400Z,52.25
2022-09-17T03:07:12.278Z,50.95
2022-09-17T03:09:41.915Z,49.25
2022-09-17T03:12:11.289Z,49.26
2022-09-17T03:14:38.966Z,48.47
2022-09-17T03:17:06.707Z,45.80
2022-09-17T03:19:34.343Z,45.00
2022-09-17T03:22:01.909Z,44.54
2022-09-17T03:24:29.820Z,43.08
2022-09-17T03:26:57.465Z,41.56
2022-09-17T03:29:25.062Z,42.06
2022-09-17T03:31:52.920Z,40.41
2022-09-17T03:34:21.319Z,40.77
2022-09-17T03:37:34.468Z,40.01
2022-09-17T03:40:03.003Z,40.28
2022-09-17T03:42:30.751Z,39.93
2022-09-17T03:44:58.466Z,39.51
2022-09-17T03:47:26.188Z,40.23
2022-09-17T03:49:53.971Z,39.84
2022-09-17T03:52:21.609Z,38.35
2022-09-17T03:54:49.383Z,40.06
2022-09-17T03:57:17.195Z,39.02
2022-09-17T03:59:44.869Z,38.25
2022-09-17T04:02:12.870Z,38.47
2022-09-17T04:04:40.763Z,38.67
2022-09-17T04:07:08.455Z,38.28
2022-09-17T04:09:36.086Z,38.11
2022-09-17T04:12:04.346Z,37.83
2022-09-17T04:14:31.917Z,38.70
2022-09-17T04:16:59.578Z,38.75
2022-09-17T04:19:27.595Z,38.39
2022-09-17T04:21:55.134Z,37.52
2022-09-17T04:24:22.701Z,38.95
2022-09-17T04:26:50.418Z,38.70
2022-09-17T04:29:18.448Z,39.60
2022-09-17T04:31:46.500Z,39.63
2022-09-17T04:34:14.355Z,39.26
2022-09-17T04:36:41.841Z,39.95
2022-09-17T04:39:09.550Z,39.44
2022-09-17T04:41:37.288Z,39.04
2022-09-17T04:44:04.969Z,40.25
2022-09-17T04:46:32.575Z,39.70
2022-09-17T04:49:00.506Z,39.85
2022-09-17T04:51:28.058Z,40.03
2022-09-17T04:53:55.828Z,40.46
2022-09-17T04:56:23.538Z,39.78
2022-09-17T04:58:51.259Z,39.91
2022-09-17T05:01:19.039Z,40.36
2022-09-17T05:03:46.934Z,40.50
2022-09-17T05:06:14.671Z,40.79
2022-09-17T05:08:42.493Z,40.07
2022-09-17T05:11:10.155Z,40.13
2022-09-17T05:13:37.654Z,40.73
2022-09-17T05:16:05.652Z,40.56
2022-09-17T05:18:33.259Z,40.66
2022-09-17T05:21:00.888Z,40.64
2022-09-17T05:23:28.497Z,40.77
2022-09-17T05:26:00.510Z,40.27
2022-09-17T05:28:28.880Z,39.72
2022-09-17T05:31:00.083Z,40.39
2022-09-17T05:33:28.370Z,40.11
2022-09-17T05:35:56.475Z,39.50
2022-09-17T05:38:24.428Z,40.55
2022-09-17T05:40:52.127Z,39.97
2022-09-17T05:43:19.802Z,40.15
2022-09-17T05:45:47.680Z,40.39
2022-09-17T05:48:16.064Z,39.47
2022-09-17T05:50:43.856Z,39.30
2022-09-17T05:53:12.995Z,39.78
2022-09-17T05:55:40.768Z,39.41
2022-09-17T05:58:16.668Z,39.85
2022-09-17T06:00:48.091Z,39.93
2022-09-17T06:03:18.225Z,39.87
2022-09-17T06:05:58.272Z,39.56
2022-09-17T06:08:27.793Z,40.04
2022-09-17T06:11:00.170Z,40.17
2022-09-17T06:13:29.933Z,40.01
2022-09-17T06:15:57.596Z,39.61
2022-09-17T06:18:25.275Z,39.75
2022-09-17T06:20:57.509Z,40.04
2022-09-17T06:23:26.313Z,39.71
2022-09-17T06:25:57.134Z,39.58
2022-09-17T06:28:26.598Z,39.92
2022-09-17T06:30:56.831Z,40.13
2022-09-17T06:33:25.155Z,40.11
2022-09-17T06:36:12.460Z,39.81
2022-09-17T06:38:41.510Z,40.31
2022-09-17T06:41:09.612Z,40.38
2022-09-17T06:43:37.444Z,40.33
2022-09-17T06:46:06.302Z,40.02
2022-09-17T06:48:35.621Z,40.21
2022-09-17T06:51:10.593Z,39.50
2022-09-17T06:53:39.444Z,39.91
2022-09-17T06:56:08.685Z,39.96
2022-09-17T06:58:37.591Z,39.46
2022-09-17T07:01:06.319Z,40.02
2022-09-17T07:03:34.585Z,39.75
2022-09-17T07:06:02.361Z,39.52
2022-09-17T07:08:34.650Z,39.69
2022-09-17T07:11:02.445Z,39.79
2022-09-17T07:13:30.226Z,39.86
2022-09-17T07:16:00.531Z,40.02
2022-09-17T07:18:28.955Z,39.93
2022-09-17T07:20:59.194Z,41.12
2022-09-17T07:23:29.431Z,40.11
2022-09-17T07:25:59.538Z,38.64
2022-09-17T07:28:28.951Z,38.26
2022-09-17T07:30:57.019Z,38.65
2022-09-17T07:33:27.804Z,39.16
2022-09-17T07:35:56.036Z,39.43
2022-09-17T07:38:24.999Z,40.19
2022-09-17T07:40:59.916Z,40.24
2022-09-17T07:43:29.558Z,40.71
2022-09-17T07:45:58.715Z,41.00
2022-09-17T07:48:27.477Z,40.12
2022-09-17T07:50:55.550Z,40.44
2022-09-17T07:53:23.778Z,40.33
2022-09-17T07:55:59.586Z,40.13
2022-09-17T07:58:33.679Z,40.32
2022-09-17T08:01:07.261Z,40.91
2022-09-17T08:03:36.274Z,40.38
2022-09-17T08:06:06.272Z,40.50
2022-09-17T08:08:36.068Z,40.84
2022-09-17T08:11:14.433Z,40.90
2022-09-17T08:13:42.479Z,40.53
2022-09-17T08:16:15.528Z,40.51
2022-09-17T08:18:44.755Z,40.55
2022-09-17T08:21:14.792Z,40.44
2022-09-17T08:23:44.263Z,40.41
2022-09-17T08:26:16.248Z,40.68
2022-09-17T08:28:48.794Z,40.43
2022-09-17T08:31:18.854Z,40.52
2022-09-17T08:33:48.111Z,40.07
2022-09-17T08:36:18.719Z,40.37
2022-09-17T08:38:46.485Z,40.37
2022-09-17T08:41:37.104Z,40.05
2022-09-17T08:44:04.935Z,40.39
2022-09-17T08:46:50.864Z,40.22
2022-09-17T08:49:36.813Z,40.36
2022-09-17T08:52:22.406Z,40.12
2022-09-17T08:55:24.094Z,39.82
2022-09-17T08:58:00.742Z,40.21
2022-09-17T09:00:46.420Z,39.94
2022-09-17T09:03:17.242Z,39.83
2022-09-17T09:05:47.894Z,39.74
2022-09-17T09:08:38.326Z,39.92
2022-09-17T09:11:27.982Z,39.92
2022-09-17T09:14:27.379Z,40.16
2022-09-17T09:16:56.677Z,39.66
2022-09-17T09:19:32.395Z,39.41
2022-09-17T09:22:18.330Z,39.51
2022-09-17T09:25:00.324Z,40.35
2022-09-17T09:27:32.971Z,39.98
2022-09-17T09:30:30.998Z,39.35
2022-09-17T09:33:15.144Z,40.21
2022-09-17T09:35:44.494Z,39.33
2022-09-17T09:38:41.048Z,39.35
2022-09-17T09:41:20.482Z,39.33
2022-09-17T09:44:12.688Z,38.90
2022-09-17T09:46:43.616Z,39.67
2022-09-17T09:49:35.080Z,39.90
2022-09-17T09:52:20.316Z,39.62
2022-09-17T09:55:18.261Z,40.00
2022-09-17T09:57:52.393Z,39.95
2022-09-17T10:00:30.784Z,39.72
2022-09-17T10:03:11.009Z,39.80
2022-09-17T10:05:39.105Z,39.91
2022-09-17T10:08:14.837Z,39.58
2022-09-17T10:10:59.428Z,39.80
2022-09-17T10:13:37.725Z,39.76
2022-09-17T10:16:22.324Z,40.04
2022-09-17T10:19:11.010Z,40.83
2022-09-17T10:21:41.185Z,40.34
2022-09-17T10:24:29.481Z,39.96
2022-09-17T10:27:07.661Z,40.31
2022-09-17T10:29:35.446Z,40.90
2022-09-17T10:32:07.033Z,40.98
2022-09-17T10:34:35.086Z,40.90
2022-09-17T10:37:02.874Z,41.28
2022-09-17T10:39:38.182Z,41.07
2022-09-17T10:42:19.064Z,41.01
2022-09-17T10:45:01.032Z,41.26
2022-09-17T10:47:31.315Z,41.56
2022-09-17T10:50:05.820Z,40.93
2022-09-17T10:52:39.302Z,42.06
2022-09-17T10:55:31.285Z,41.06
2022-09-17T10:58:08.474Z,41.74
2022-09-17T11:00:52.460Z,42.10
2022-09-17T11:03:41.607Z,41.40
2022-09-17T11:06:28.201Z,41.18
2022-09-17T11:09:06.501Z,41.69
2022-09-17T11:11:37.207Z,41.61
2022-09-17T11:14:43.797Z,42.05
2022-09-17T11:18:13.160Z,42.47
2022-09-17T11:20:49.817Z,42.24
2022-09-17T11:23:55.957Z,42.28
2022-09-17T11:27:06.776Z,41.27
2022-09-17T11:29:57.194Z,42.07
2022-09-17T11:32:49.720Z,41.66
2022-09-17T11:35:23.085Z,41.65
2022-09-17T11:38:02.630Z,41.55
2022-09-17T11:40:52.738Z,41.87
2022-09-17T11:43:36.186Z,42.18
2022-09-17T11:46:10.860Z,41.90
2022-09-17T11:48:42.545Z,41.77
2022-09-17T11:51:23.613Z,41.99
2022-09-17T11:53:57.709Z,41.93
2022-09-17T11:56:45.048Z,41.32
2022-09-17T11:59:23.145Z,41.13
2022-09-17T12:02:02.648Z,40.61
2022-09-17T12:04:41.406Z,41.04
2022-09-17T12:07:31.895Z,40.63
2022-09-17T12:10:08.968Z,40.47
2022-09-17T12:12:50.546Z,40.09
2022-09-17T12:15:23.014Z,40.53
2022-09-17T12:18:14.253Z,41.07
2022-09-17T12:20:48.054Z,41.54
2022-09-17T12:23:22.202Z,41.62
2022-09-17T12:26:00.948Z,42.02
2022-09-17T12:29:05.847Z,42.12
2022-09-17T12:31:50.888Z,42.09
2022-09-17T12:34:54.079Z,42.00
2022-09-17T12:38:00.382Z,42.45
2022-09-17T12:40:47.415Z,42.21
2022-09-17T12:43:33.966Z,42.30
2022-09-17T12:46:04.627Z,42.08
2022-09-17T12:48:35.184Z,42.28
2022-09-17T12:51:19.951Z,42.60
2022-09-17T12:54:21.799Z,42.31
2022-09-17T12:57:01.618Z,42.42
2022-09-17T12:59:33.274Z,42.80
2022-09-17T13:02:24.367Z,42.61
2022-09-17T13:05:16.761Z,42.56
2022-09-17T13:08:03.263Z,43.13
2022-09-17T13:10:34.223Z,43.06
2022-09-17T13:13:01.940Z,42.86
2022-09-17T13:15:35.808Z,43.18
2022-09-17T13:18:26.211Z,43.23
2022-09-17T13:21:04.048Z,43.35
2022-09-17T13:23:36.026Z,43.44
2022-09-17T13:26:06.190Z,43.35
2022-09-17T13:28:52.871Z,43.65
2022-09-17T13:31:42.850Z,43.94
2022-09-17T13:34:31.741Z,44.07
2022-09-17T13:37:04.815Z,43.63
2022-09-17T13:39:48.302Z,44.01
2022-09-17T13:42:28.144Z,44.41
2022-09-17T13:45:13.260Z,44.43
2022-09-17T13:48:16.763Z,44.60
2022-09-17T13:50:44.974Z,44.49
2022-09-17T13:53:12.568Z,44.78
2022-09-17T13:55:51.820Z,44.92
2022-09-17T13:58:19.431Z,44.82
2022-09-17T14:00:57.762Z,45.00
2022-09-17T14:03:33.881Z,44.85
2022-09-17T14:06:08.821Z,45.08
2022-09-17T14:08:46.731Z,44.89
2022-09-17T14:11:27.856Z,45.21
2022-09-17T14:13:56.302Z,45.11
2022-09-17T14:16:37.365Z,45.07
2022-09-17T14:19:27.157Z,45.44
2022-09-17T14:21:57.630Z,45.18
2022-09-17T14:24:34.376Z,44.99
2022-09-17T14:27:08.383Z,45.37
2022-09-17T14:30:07.924Z,45.40
2022-09-17T14:33:13.388Z,45.43
2022-09-17T14:35:50.388Z,45.03
2022-09-17T14:38:53.553Z,45.23
2022-09-17T14:41:30.012Z,45.31
2022-09-17T14:44:09.170Z,45.20
2022-09-17T14:46:43.360Z,45.17
2022-09-17T14:49:23.015Z,45.23
2022-09-17T14:51:54.429Z,45.39
2022-09-17T14:54:33.642Z,44.89
2022-09-17T14:57:09.793Z,45.18
2022-09-17T14:59:46.433Z,45.08
2022-09-17T15:02:43.561Z,44.92
2022-09-17T15:05:33.856Z,45.48
2022-09-17T15:08:23.426Z,44.96
2022-09-17T15:10:58.904Z,44.77
2022-09-17T15:13:51.162Z,45.27
2022-09-17T15:16:30.809Z,45.03
2022-09-17T15:19:01.827Z,45.23
2022-09-17T15:21:44.154Z,45.07
2022-09-17T15:24:44.842Z,45.05
2022-09-17T15:27:14.621Z,45.06
2022-09-17T15:29:47.988Z,45.09
2022-09-17T15:32:15.963Z,45.12
2022-09-17T15:34:43.686Z,44.95
2022-09-17T15:37:25.207Z,45.20
2022-09-17T15:39:55.692Z,45.02
2022-09-17T15:42:29.679Z,45.36
2022-09-17T15:45:09.240Z,45.10
2022-09-17T15:47:52.107Z,45.76
2022-09-17T15:50:26.124Z,46.18
2022-09-17T15:53:09.163Z,45.71
2022-09-17T15:55:58.688Z,45.05
2022-09-17T15:58:30.003Z,45.14
2022-09-17T16:01:16.212Z,45.18
2022-09-17T16:03:44.493Z,45.36
2022-09-17T16:06:21.161Z,45.39
2022-09-17T16:08:48.826Z,44.95
2022-09-17T16:11:17.530Z,45.04
2022-09-17T16:13:49.613Z,45.44
2022-09-17T16:16:23.834Z,45.03
2022-09-17T16:18:51.678Z,45.33
2022-09-17T16:21:20.876Z,45.02
2022-09-17T16:23:48.496Z,45.23
2022-09-17T16:26:19.877Z,44.94
2022-09-17T16:28:50.341Z,45.33
2022-09-17T16:31:18.319Z,45.06
2022-09-17T16:33:45.999Z,45.01
2022-09-17T16:36:17.093Z,44.85
2022-09-17T16:38:44.826Z,45.23
2022-09-17T16:41:12.728Z,45.07
2022-09-17T16:43:40.518Z,45.30
2022-09-17T16:46:11.185Z,45.20
2022-09-17T16:48:39.084Z,45.08
2022-09-17T16:51:14.271Z,45.26
2022-09-17T16:53:42.144Z,45.30
2022-09-17T16:56:11.558Z,45.39
2022-09-17T16:58:40.535Z,44.96
2022-09-17T17:01:13.226Z,45.37
2022-09-17T17:03:41.488Z,45.24
2022-09-17T17:06:16.869Z,45.77
2022-09-17T17:08:44.794Z,45.48
2022-09-17T17:11:12.925Z,45.27
2022-09-17T17:13:43.133Z,45.45
2022-09-17T17:16:14.078Z,45.67
2022-09-17T17:18:44.000Z,45.26
2022-09-17T17:21:14.486Z,45.67
2022-09-17T17:23:47.817Z,45.56
2022-09-17T17:26:19.394Z,45.85
2022-09-17T17:28:49.967Z,45.31
2022-09-17T17:31:18.221Z,45.37
2022-09-17T17:33:46.172Z,44.98
2022-09-17T17:36:14.108Z,45.31
2022-09-17T17:38:41.923Z,45.32
2022-09-17T17:41:14.404Z,44.54
2022-09-17T17:43:42.467Z,44.74
2022-09-17T17:46:11.731Z,44.66
2022-09-17T17:48:39.669Z,44.66
2022-09-17T17:51:09.573Z,44.56
2022-09-17T17:53:37.470Z,44.04
2022-09-17T17:56:09.420Z,43.64
2022-09-17T17:58:37.652Z,43.53
2022-09-17T18:01:15.269Z,42.90
2022-09-17T18:03:43.703Z,43.16
2022-09-17T18:06:11.631Z,43.52
2022-09-17T18:08:41.361Z,43.49
2022-09-17T18:11:10.388Z,43.54
2022-09-17T18:13:39.480Z,45.12
2022-09-17T18:16:09.217Z,45.28
2022-09-17T18:18:44.984Z,45.31
2022-09-17T18:21:16.443Z,44.68
2022-09-17T18:23:44.794Z,43.64
2022-09-17T18:26:17.955Z,43.11
2022-09-17T18:28:46.213Z,43.35
2022-09-17T18:31:44.816Z,42.79
2022-09-17T18:34:14.957Z,43.18
2022-09-17T18:36:47.586Z,43.08
2022-09-17T18:42:09.239Z,43.11
2022-09-17T18:44:36.868Z,42.92
2022-09-17T18:47:04.564Z,43.02
2022-09-17T18:49:32.530Z,42.81
2022-09-17T18:52:02.943Z,43.02
2022-09-17T18:54:30.703Z,42.58
2022-09-17T18:56:58.345Z,42.60
2022-09-17T18:59:26.012Z,42.50
2022-09-17T19:01:53.884Z,42.00
2022-09-17T19:04:21.733Z,42.36
2022-09-17T19:06:49.474Z,41.85
2022-09-17T19:09:17.181Z,41.43
2022-09-17T19:11:44.918Z,41.79
2022-09-17T19:14:12.658Z,41.49
2022-09-17T19:16:40.161Z,41.18
2022-09-17T19:19:07.860Z,41.66
2022-09-17T19:21:35.539Z,41.08
2022-09-17T19:24:03.795Z,41.32
2022-09-17T19:26:31.482Z,41.17
2022-09-17T19:29:00.538Z,40.92
2022-09-17T19:31:28.668Z,40.96
2022-09-17T19:33:58.559Z,41.36
2022-09-17T19:36:26.966Z,41.35
2022-09-17T19:38:55.157Z,41.15
2022-09-17T19:41:26.323Z,41.03
2022-09-17T19:43:55.216Z,41.29
2022-09-17T19:46:25.301Z,40.72
2022-09-17T19:48:55.400Z,41.25
2022-09-17T19:51:25.061Z,41.21
2022-09-17T19:53:53.286Z,40.97
2022-09-17T19:56:23.304Z,40.74
2022-09-17T19:58:51.619Z,40.06
2022-09-17T20:01:19.856Z,40.50
2022-09-17T20:03:51.157Z,40.39
2022-09-17T20:06:21.049Z,40.72
2022-09-17T20:08:51.315Z,40.55
2022-09-17T20:11:20.496Z,40.37
2022-09-17T20:13:48.721Z,40.53
2022-09-17T20:16:21.895Z,40.56
2022-09-17T20:18:50.400Z,40.05
2022-09-17T20:21:24.588Z,40.20
2022-09-17T20:23:54.702Z,39.94
2022-09-17T20:26:23.076Z,40.33
2022-09-17T20:28:52.094Z,39.70
2022-09-17T20:31:25.273Z,39.75
2022-09-17T20:34:01.136Z,39.91
2022-09-17T20:36:31.543Z,40.17
2022-09-17T20:39:12.336Z,40.49
2022-09-17T20:41:43.166Z,40.56
2022-09-17T20:44:11.260Z,40.23
2022-09-17T20:46:39.213Z,40.58
2022-09-17T20:49:07.020Z,40.40
2022-09-17T20:51:35.271Z,40.10
2022-09-17T20:54:03.030Z,40.40
2022-09-17T20:56:33.385Z,40.50
2022-09-17T20:59:13.602Z,40.63
2022-09-17T21:01:45.202Z,40.65
2022-09-17T21:04:19.710Z,40.72
2022-09-17T21:06:51.792Z,40.64
2022-09-17T21:09:20.159Z,40.27
2022-09-17T21:11:49.345Z,40.10
2022-09-17T21:14:18.339Z,40.46
2022-09-17T21:16:46.751Z,40.93
2022-09-17T21:19:16.351Z,40.61
2022-09-17T21:21:44.698Z,40.90
2022-09-17T21:24:12.470Z,40.90
2022-09-17T21:26:40.447Z,40.74
2022-09-17T21:29:08.153Z,40.76
2022-09-17T21:31:37.532Z,40.55
2022-09-17T21:34:12.317Z,40.51
2022-09-17T21:36:41.575Z,40.43
2022-09-17T21:39:15.211Z,39.58
2022-09-17T21:41:44.381Z,40.04
2022-09-17T21:44:12.837Z,39.58
2022-09-17T21:46:42.507Z,39.90
2022-09-17T21:49:11.454Z,39.85
2022-09-17T21:51:41.420Z,39.85
2022-09-17T21:54:15.468Z,39.78
2022-09-17T21:56:44.216Z,39.66
2022-09-17T21:59:14.162Z,39.82
2022-09-17T22:01:47.683Z,39.44
2022-09-17T22:04:18.865Z,39.33
2022-09-17T22:06:48.454Z,39.23
2022-09-17T22:09:19.282Z,38.75
2022-09-17T22:11:47.447Z,39.50
2022-09-17T22:14:21.333Z,38.63
2022-09-17T22:16:54.633Z,38.05
2022-09-17T22:19:23.911Z,37.75
2022-09-17T22:21:54.163Z,37.73
2022-09-17T22:24:22.795Z,35.43
2022-09-17T22:26:57.353Z,36.02
2022-09-17T22:29:27.011Z,36.21
2022-09-17T22:31:54.790Z,35.80
2022-09-17T22:34:23.828Z,36.07
2022-09-17T22:36:51.473Z,35.49
2022-09-17T22:39:22.669Z,35.09
2022-09-17T22:41:50.726Z,35.57
2022-09-17T22:44:19.740Z,35.70
2022-09-17T22:46:49.849Z,34.70
2022-09-17T22:49:18.673Z,34.99
2022-09-17T22:51:49.296Z,35.13
2022-09-17T22:54:18.495Z,34.98
2022-09-17T22:56:47.811Z,34.74
2022-09-17T22:59:15.940Z,34.85
2022-09-17T23:01:43.759Z,34.57
2022-09-17T23:04:11.550Z,35.00
2022-09-17T23:06:42.350Z,34.49
2022-09-17T23:09:12.756Z,34.10
2022-09-17T23:11:40.780Z,34.50
2022-09-17T23:14:12.120Z,34.09
2022-09-17T23:16:45.789Z,34.16
2022-09-17T23:19:15.585Z,34.68
2022-09-17T23:21:43.732Z,34.53
2022-09-17T23:24:18.379Z,34.16
2022-09-17T23:26:46.619Z,34.14
2022-09-17T23:29:14.570Z,34.54
2022-09-17T23:31:42.428Z,34.05
2022-09-17T23:34:10.511Z,34.16
2022-09-17T23:36:39.943Z,34.12
2022-09-17T23:39:10.831Z,33.76
2022-09-17T23:41:43.264Z,34.02
2022-09-17T23:44:15.623Z,33.93
2022-09-17T23:46:45.424Z,33.72
2022-09-17T23:49:14.448Z,34.04
2022-09-17T23:51:42.656Z,34.10
2022-09-17T23:54:10.865Z,34.19
2022-09-17T23:56:38.467Z,34.19
2022-09-17T23:59:07.536Z,33.86
